createdAt,value
2018-05-12T00:00:48.941Z,10.60
2018-05-12T00:03:19.029Z,10.70
2018-05-12T00:05:49.359Z,10.70
2018-05-12T00:08:18.410Z,10.80
2018-05-12T00:10:47.265Z,10.70
2018-05-12T00:13:16.991Z,10.70
2018-05-12T00:15:46.075Z,10.70
2018-05-12T00:18:14.499Z,10.70
2018-05-12T00:20:42.825Z,10.70
2018-05-12T00:23:11.307Z,10.60
2018-05-12T00:25:39.625Z,10.50
2018-05-12T00:28:07.946Z,10.30
2018-05-12T00:30:37.072Z,10.30
2018-05-12T00:33:05.409Z,10.30
2018-05-12T00:35:33.763Z,10.20
2018-05-12T00:38:02.116Z,10.10
2018-05-12T00:40:30.530Z,10.10
2018-05-12T00:42:58.949Z,10.20
2018-05-12T00:45:27.227Z,10.20
2018-05-12T00:47:55.666Z,10.20
2018-05-12T00:50:24.083Z,10.30
2018-05-12T00:52:52.484Z,10.40
2018-05-12T00:55:20.790Z,10.40
2018-05-12T00:57:49.147Z,10.40
2018-05-12T01:00:17.489Z,10.40
2018-05-12T01:02:46.817Z,10.50
2018-05-12T01:05:15.305Z,10.50
2018-05-12T01:07:43.614Z,10.50
2018-05-12T01:10:11.996Z,10.50
2018-05-12T01:12:41.915Z,10.50
2018-05-12T01:15:11.069Z,10.50
2018-05-12T01:17:39.635Z,10.50
2018-05-12T01:20:08.725Z,10.40
2018-05-12T01:22:37.855Z,10.30
2018-05-12T01:25:06.219Z,10.20
2018-05-12T01:27:35.365Z,10.20
2018-05-12T01:30:03.777Z,10.10
2018-05-12T01:32:33.923Z,10.20
2018-05-12T01:35:02.461Z,10.20
2018-05-12T01:37:30.793Z,10.20
2018-05-12T01:39:59.201Z,10.20
2018-05-12T01:42:27.685Z,10.20
2018-05-12T01:44:55.990Z,10.10
2018-05-12T01:47:24.415Z,10.10
2018-05-12T01:49:52.760Z,10.00
2018-05-12T01:52:21.837Z,9.90
2018-05-12T01:54:50.153Z,9.90
2018-05-12T01:57:18.495Z,9.80
2018-05-12T01:59:46.912Z,9.70
2018-05-12T02:02:15.984Z,9.50
2018-05-12T02:04:45.092Z,9.60
2018-05-12T02:07:14.210Z,9.50
2018-05-12T02:09:42.579Z,9.50
2018-05-12T02:12:10.959Z,9.40
2018-05-12T02:14:39.257Z,9.20
2018-05-12T02:17:08.372Z,8.90
2018-05-12T02:19:36.744Z,8.90
2018-05-12T02:22:05.146Z,8.80
2018-05-12T02:24:33.464Z,8.70
2018-05-12T02:27:02.577Z,8.70
2018-05-12T02:29:30.882Z,8.60
2018-05-12T02:31:59.240Z,8.70
2018-05-12T02:34:27.725Z,8.60
2018-05-12T02:36:56.161Z,8.60
2018-05-12T02:39:24.454Z,8.60
2018-05-12T02:41:53.580Z,8.60
2018-05-12T02:44:21.946Z,8.60
2018-05-12T02:46:50.302Z,8.70
2018-05-12T02:49:19.429Z,8.50
2018-05-12T02:51:47.738Z,8.50
2018-05-12T02:54:16.825Z,8.40
2018-05-12T02:56:45.155Z,8.40
2018-05-12T02:59:14.326Z,8.30
2018-05-12T03:01:42.649Z,8.30
2018-05-12T03:04:11.049Z,8.30
2018-05-12T03:06:39.386Z,8.30
2018-05-12T03:09:08.467Z,8.20
2018-05-12T03:11:37.624Z,8.20
2018-05-12T03:14:05.970Z,8.20
2018-05-12T03:16:34.299Z,8.20
2018-05-12T03:19:02.627Z,8.30
2018-05-12T03:21:31.054Z,8.40
2018-05-12T03:23:59.401Z,8.50
2018-05-12T03:26:27.709Z,8.60
2018-05-12T03:28:56.027Z,8.50
2018-05-12T03:31:25.122Z,8.40
2018-05-12T03:33:53.480Z,8.40
2018-05-12T03:36:22.592Z,8.30
2018-05-12T03:38:51.019Z,8.30
2018-05-12T03:41:19.425Z,8.30
2018-05-12T03:43:47.818Z,8.20
2018-05-12T03:46:16.163Z,8.20
2018-05-12T03:48:44.465Z,8.10
2018-05-12T03:51:12.860Z,8.10
2018-05-12T03:53:41.189Z,8.00
2018-05-12T03:56:09.587Z,8.00
2018-05-12T03:58:37.914Z,7.90
2018-05-12T04:01:06.994Z,8.00
2018-05-12T04:03:35.352Z,8.00
2018-05-12T04:06:15.319Z,8.10
2018-05-12T04:08:55.425Z,8.00
2018-05-12T04:11:35.497Z,8.00
2018-05-12T04:14:04.595Z,8.20
2018-05-12T04:16:32.941Z,8.20
2018-05-12T04:19:01.629Z,8.20
2018-05-12T04:21:30.727Z,8.20
2018-05-12T04:23:59.111Z,8.10
2018-05-12T04:26:27.567Z,8.20
2018-05-12T04:28:56.650Z,8.20
2018-05-12T04:31:24.973Z,8.20
2018-05-12T04:33:54.119Z,8.20
2018-05-12T04:36:23.446Z,8.20
2018-05-12T04:38:52.551Z,8.10
2018-05-12T04:41:21.642Z,8.10
2018-05-12T04:43:50.016Z,8.10
2018-05-12T04:46:19.116Z,8.20
2018-05-12T04:48:48.294Z,8.20
2018-05-12T04:51:16.638Z,8.20
2018-05-12T04:53:45.020Z,8.20
2018-05-12T04:56:13.332Z,8.30
2018-05-12T04:58:41.662Z,8.30
2018-05-12T05:01:10.156Z,8.40
2018-05-12T05:03:38.502Z,8.50
2018-05-12T05:06:07.613Z,8.70
2018-05-12T05:08:36.113Z,8.70
2018-05-12T05:11:04.456Z,8.80
2018-05-12T05:13:33.656Z,9.10
2018-05-12T05:16:02.741Z,9.20
2018-05-12T05:18:31.856Z,9.30
2018-05-12T05:21:00.202Z,9.30
2018-05-12T05:23:28.917Z,9.40
2018-05-12T05:25:57.355Z,9.50
2018-05-12T05:28:25.768Z,9.50
2018-05-12T05:30:55.009Z,9.70
2018-05-12T05:33:24.147Z,9.80
2018-05-12T05:35:52.696Z,9.80
2018-05-12T05:38:21.081Z,10.00
2018-05-12T05:40:49.436Z,10.10
2018-05-12T05:43:17.929Z,10.20
2018-05-12T05:45:46.266Z,10.40
2018-05-12T05:48:14.678Z,10.50
2018-05-12T05:50:43.002Z,10.60
2018-05-12T05:53:12.114Z,11.00
2018-05-12T05:55:41.274Z,11.10
2018-05-12T05:58:09.628Z,11.10
2018-05-12T06:00:37.951Z,11.30
2018-05-12T06:03:06.270Z,11.50
2018-05-12T06:05:34.659Z,11.70
2018-05-12T06:08:03.083Z,11.80
2018-05-12T06:10:32.326Z,12.00
2018-05-12T06:13:02.113Z,12.10
2018-05-12T06:15:30.537Z,12.20
2018-05-12T06:17:59.219Z,12.30
2018-05-12T06:20:28.299Z,12.70
2018-05-12T06:22:57.393Z,12.90
2018-05-12T06:25:26.474Z,13.10
2018-05-12T06:27:55.638Z,13.30
2018-05-12T06:30:24.005Z,13.30
2018-05-12T06:32:52.368Z,13.40
2018-05-12T06:35:20.749Z,13.60
2018-05-12T06:37:49.103Z,13.80
2018-05-12T06:40:19.473Z,14.20
2018-05-12T06:42:49.207Z,14.40
2018-05-12T06:45:17.573Z,14.40
2018-05-12T06:47:46.094Z,14.80
2018-05-12T06:50:14.569Z,15.10
2018-05-12T06:52:43.733Z,15.40
2018-05-12T06:55:12.204Z,15.40
2018-05-12T06:57:40.559Z,15.70
2018-05-12T07:00:09.741Z,16.00
2018-05-12T07:02:38.899Z,16.00
2018-05-12T07:05:07.433Z,16.00
2018-05-12T07:07:35.845Z,16.00
2018-05-12T07:10:05.085Z,16.10
2018-05-12T07:12:33.468Z,16.30
2018-05-12T07:15:02.695Z,16.60
2018-05-12T07:17:31.073Z,16.60
2018-05-12T07:19:59.416Z,16.60
2018-05-12T07:22:27.817Z,16.60
2018-05-12T07:24:56.248Z,16.90
2018-05-12T07:27:25.381Z,17.70
2018-05-12T07:29:54.708Z,17.70
2018-05-12T07:32:23.113Z,18.00
2018-05-12T07:34:51.479Z,18.20
2018-05-12T07:37:19.990Z,18.00
2018-05-12T07:39:48.452Z,18.10
2018-05-12T07:42:18.460Z,18.40
2018-05-12T07:44:46.879Z,18.40
2018-05-12T07:47:16.097Z,18.60
2018-05-12T07:49:44.789Z,18.60
2018-05-12T07:52:13.994Z,18.60
2018-05-12T07:54:43.201Z,18.40
2018-05-12T07:57:11.777Z,18.30
2018-05-12T07:59:40.192Z,18.20
2018-05-12T08:02:08.589Z,18.30
2018-05-12T08:04:36.934Z,18.70
2018-05-12T08:07:05.476Z,18.70
2018-05-12T08:09:33.875Z,19.00
2018-05-12T08:12:02.373Z,19.50
2018-05-12T08:14:31.490Z,21.00
2018-05-12T08:17:00.062Z,20.90
2018-05-12T08:19:28.613Z,21.70
2018-05-12T08:21:58.102Z,22.30
2018-05-12T08:24:26.525Z,22.20
2018-05-12T08:26:55.756Z,20.90
2018-05-12T08:29:24.150Z,20.90
2018-05-12T08:31:52.567Z,20.80
2018-05-12T08:34:21.791Z,20.20
2018-05-12T08:36:50.823Z,20.10
2018-05-12T08:39:19.415Z,19.70
2018-05-12T08:41:48.128Z,19.50
2018-05-12T08:44:16.896Z,19.60
2018-05-12T08:46:45.625Z,19.70
2018-05-12T08:49:15.831Z,20.00
2018-05-12T08:51:45.178Z,19.90
2018-05-12T08:54:13.827Z,19.90
2018-05-12T08:56:43.454Z,20.00
2018-05-12T08:59:12.066Z,20.30
2018-05-12T09:01:41.303Z,20.00
2018-05-12T09:04:09.626Z,20.00
2018-05-12T09:06:38.025Z,19.80
2018-05-12T09:09:06.402Z,19.80
2018-05-12T09:11:35.511Z,20.00
2018-05-12T09:14:03.945Z,20.00
2018-05-12T09:16:33.039Z,20.40
2018-05-12T09:19:02.239Z,20.50
2018-05-12T09:21:30.817Z,20.40
2018-05-12T09:24:00.969Z,20.50
2018-05-12T09:26:29.316Z,20.50
2018-05-12T09:28:58.429Z,20.30
2018-05-12T09:31:27.565Z,20.00
2018-05-12T09:33:55.919Z,20.00
2018-05-12T09:36:24.355Z,20.00
2018-05-12T09:38:53.593Z,19.90
2018-05-12T09:41:22.433Z,19.90
2018-05-12T09:43:50.837Z,20.40
2018-05-12T09:46:20.917Z,20.40
2018-05-12T09:48:49.894Z,20.40
2018-05-12T09:51:18.875Z,20.50
2018-05-12T09:53:48.048Z,20.60
2018-05-12T09:56:17.115Z,20.70
2018-05-12T09:58:46.635Z,20.60
2018-05-12T10:01:15.697Z,20.70
2018-05-12T10:03:45.141Z,20.40
2018-05-12T10:06:14.400Z,20.60
2018-05-12T10:08:47.796Z,20.80
2018-05-12T10:11:17.870Z,21.10
2018-05-12T10:13:48.245Z,21.50
2018-05-12T10:16:17.833Z,21.40
2018-05-12T10:18:46.854Z,21.30
2018-05-12T10:21:16.094Z,21.20
2018-05-12T10:23:45.193Z,20.90
2018-05-12T10:26:13.906Z,20.60
2018-05-12T10:28:42.925Z,20.80
2018-05-12T10:31:11.467Z,21.20
2018-05-12T10:33:40.548Z,21.70
2018-05-12T10:36:09.660Z,22.20
2018-05-12T10:38:41.221Z,22.50
2018-05-12T10:41:11.315Z,22.70
2018-05-12T10:43:43.517Z,22.90
2018-05-12T10:46:14.123Z,22.90
2018-05-12T10:48:43.281Z,22.90
2018-05-12T10:51:12.697Z,23.10
2018-05-12T10:53:41.650Z,22.90
2018-05-12T10:56:11.820Z,23.10
2018-05-12T10:58:41.756Z,23.50
2018-05-12T11:01:12.653Z,23.10
2018-05-12T11:03:43.885Z,23.10
2018-05-12T11:06:13.946Z,23.10
2018-05-12T11:08:42.985Z,23.00
2018-05-12T11:11:13.900Z,22.80
2018-05-12T11:13:43.113Z,22.70
2018-05-12T11:16:12.966Z,23.00
2018-05-12T11:18:41.922Z,23.00
2018-05-12T11:21:11.899Z,22.90
2018-05-12T11:23:40.984Z,23.10
2018-05-12T11:26:10.146Z,23.20
2018-05-12T11:28:40.307Z,23.10
2018-05-12T11:31:09.348Z,23.00
2018-05-12T11:33:40.387Z,21.60
2018-05-12T11:36:09.559Z,21.20
2018-05-12T11:38:38.702Z,21.10
2018-05-12T11:41:07.836Z,21.00
2018-05-12T11:43:36.275Z,21.00
2018-05-12T11:46:04.686Z,21.30
2018-05-12T11:48:33.854Z,21.60
2018-05-12T11:51:02.250Z,21.60
2018-05-12T11:53:30.691Z,21.60
2018-05-12T11:55:59.370Z,21.50
2018-05-12T11:58:27.987Z,21.80
2018-05-12T12:00:57.457Z,22.20
2018-05-12T12:03:25.983Z,22.70
2018-05-12T12:05:54.425Z,22.80
2018-05-12T12:08:23.534Z,23.00
2018-05-12T12:10:51.897Z,22.90
2018-05-12T12:13:21.039Z,22.60
2018-05-12T12:15:49.426Z,22.50
2018-05-12T12:18:18.711Z,22.80
2018-05-12T12:20:47.899Z,22.70
2018-05-12T12:23:17.744Z,22.80
2018-05-12T12:25:46.753Z,23.20
2018-05-12T12:28:15.712Z,23.40
2018-05-12T12:30:44.056Z,23.40
2018-05-12T12:33:13.815Z,22.30
2018-05-12T12:35:42.381Z,22.30
2018-05-12T12:38:13.238Z,22.50
2018-05-12T12:40:41.878Z,22.50
2018-05-12T12:43:11.860Z,22.70
2018-05-12T12:45:40.861Z,22.60
2018-05-12T12:48:09.384Z,22.70
2018-05-12T12:50:39.185Z,22.80
2018-05-12T12:53:08.325Z,22.80
2018-05-12T12:55:38.319Z,23.00
2018-05-12T12:58:08.305Z,23.10
2018-05-12T13:00:37.136Z,23.10
2018-05-12T13:03:06.399Z,23.80
2018-05-12T13:05:35.322Z,23.80
2018-05-12T13:08:06.138Z,24.20
2018-05-12T13:10:34.594Z,24.20
2018-05-12T13:13:03.030Z,24.60
2018-05-12T13:15:32.128Z,24.60
2018-05-12T13:18:00.780Z,24.70
2018-05-12T13:20:29.889Z,24.70
2018-05-12T13:22:58.263Z,24.70
2018-05-12T13:25:26.615Z,24.40
2018-05-12T13:27:55.020Z,24.50
2018-05-12T13:30:23.397Z,24.20
2018-05-12T13:32:51.731Z,24.90
2018-05-12T13:35:20.087Z,25.60
2018-05-12T13:37:48.458Z,25.30
2018-05-12T13:40:17.917Z,24.30
2018-05-12T13:42:46.306Z,23.90
2018-05-12T13:45:15.479Z,24.10
2018-05-12T13:47:43.851Z,24.20
2018-05-12T13:50:12.230Z,25.20
2018-05-12T13:52:40.587Z,26.30
2018-05-12T13:55:08.947Z,27.00
2018-05-12T13:57:37.478Z,27.50
2018-05-12T14:00:05.899Z,27.00
2018-05-12T14:02:34.273Z,26.90
2018-05-12T14:05:03.429Z,26.70
2018-05-12T14:07:32.505Z,26.70
2018-05-12T14:10:01.347Z,26.90
2018-05-12T14:12:30.300Z,26.90
2018-05-12T14:14:59.871Z,26.90
2018-05-12T14:17:28.623Z,27.10
2018-05-12T14:19:57.264Z,27.20
2018-05-12T14:22:26.463Z,26.60
2018-05-12T14:24:55.637Z,26.30
2018-05-12T14:27:27.546Z,26.40
2018-05-12T14:29:56.377Z,26.30
2018-05-12T14:32:25.237Z,25.70
2018-05-12T14:34:53.966Z,25.40
2018-05-12T14:37:22.578Z,24.70
2018-05-12T14:39:51.477Z,24.20
2018-05-12T14:42:20.893Z,23.70
2018-05-12T14:44:49.575Z,23.10
2018-05-12T14:47:18.353Z,23.20
2018-05-12T14:49:46.871Z,24.30
2018-05-12T14:52:15.705Z,24.70
2018-05-12T14:54:44.629Z,24.40
2018-05-12T14:57:13.479Z,23.60
2018-05-12T14:59:42.006Z,23.40
2018-05-12T15:02:10.873Z,24.00
2018-05-12T15:04:39.442Z,24.10
2018-05-12T15:07:08.240Z,24.00
2018-05-12T15:09:38.111Z,23.70
2018-05-12T15:12:07.418Z,23.80
2018-05-12T15:14:37.636Z,24.40
2018-05-12T15:17:06.788Z,24.90
2018-05-12T15:19:35.215Z,24.90
2018-05-12T15:22:03.979Z,25.70
2018-05-12T15:24:32.809Z,26.70
2018-05-12T15:27:01.776Z,26.90
2018-05-12T15:29:30.235Z,26.70
2018-05-12T15:31:59.255Z,26.10
2018-05-12T15:34:27.943Z,26.00
2018-05-12T15:36:56.565Z,26.00
2018-05-12T15:39:25.078Z,25.90
2018-05-12T15:41:53.938Z,25.80
2018-05-12T15:44:23.467Z,25.80
2018-05-12T15:46:51.897Z,26.00
2018-05-12T15:49:21.991Z,26.10
2018-05-12T15:51:50.695Z,26.50
2018-05-12T15:54:21.157Z,25.40
2018-05-12T15:56:49.571Z,25.30
2018-05-12T15:59:17.988Z,25.40
2018-05-12T16:01:46.453Z,25.20
2018-05-12T16:04:14.838Z,24.90
2018-05-12T16:06:43.356Z,24.50
2018-05-12T16:09:12.590Z,24.30
2018-05-12T16:11:41.163Z,24.20
2018-05-12T16:14:09.815Z,23.90
2018-05-12T16:16:39.029Z,24.10
2018-05-12T16:19:07.502Z,24.10
2018-05-12T16:21:35.925Z,23.90
2018-05-12T16:24:04.446Z,24.00
2018-05-12T16:26:33.017Z,24.10
2018-05-12T16:29:01.461Z,23.90
2018-05-12T16:31:30.044Z,23.90
2018-05-12T16:33:58.370Z,23.60
2018-05-12T16:36:26.872Z,23.40
2018-05-12T16:38:56.059Z,23.00
2018-05-12T16:41:24.509Z,23.00
2018-05-12T16:43:52.930Z,22.60
2018-05-12T16:46:21.520Z,22.30
2018-05-12T16:48:50.804Z,22.00
2018-05-12T16:51:19.410Z,22.00
2018-05-12T16:53:47.895Z,22.40
2018-05-12T16:56:16.509Z,22.70
2018-05-12T16:58:44.915Z,23.00
2018-05-12T17:01:13.859Z,23.10
2018-05-12T17:03:42.346Z,22.90
2018-05-12T17:06:10.926Z,23.10
2018-05-12T17:08:39.345Z,23.00
2018-05-12T17:11:07.804Z,22.60
2018-05-12T17:13:36.300Z,22.40
2018-05-12T17:16:04.730Z,22.20
2018-05-12T17:18:33.119Z,22.10
2018-05-12T17:21:02.395Z,21.40
2018-05-12T17:23:31.593Z,21.40
2018-05-12T17:26:00.082Z,21.30
2018-05-12T17:28:28.565Z,21.30
2018-05-12T17:30:57.064Z,21.10
2018-05-12T17:33:25.500Z,21.00
2018-05-12T17:35:54.267Z,21.00
2018-05-12T17:38:22.613Z,20.80
2018-05-12T17:40:51.014Z,20.60
2018-05-12T17:43:19.369Z,20.30
2018-05-12T17:45:50.713Z,20.10
2018-05-12T17:48:20.385Z,20.00
2018-05-12T17:50:48.955Z,20.00
2018-05-12T17:53:18.055Z,19.90
2018-05-12T17:55:47.317Z,19.70
2018-05-12T17:58:16.118Z,19.60
2018-05-12T18:00:44.622Z,19.60
2018-05-12T18:03:13.012Z,19.50
2018-05-12T18:05:41.414Z,19.20
2018-05-12T18:08:10.933Z,19.10
2018-05-12T18:10:39.788Z,19.00
2018-05-12T18:13:08.224Z,18.80
2018-05-12T18:15:37.377Z,18.80
2018-05-12T18:18:07.579Z,18.70
2018-05-12T18:20:36.672Z,18.60
2018-05-12T18:23:06.629Z,18.30
2018-05-12T18:25:35.349Z,18.20
2018-05-12T18:28:04.232Z,18.00
2018-05-12T18:30:32.892Z,17.80
2018-05-12T18:33:01.770Z,17.60
2018-05-12T18:35:30.968Z,17.40
2018-05-12T18:37:59.982Z,17.10
2018-05-12T18:40:28.778Z,17.00
2018-05-12T18:42:58.083Z,16.60
2018-05-12T18:45:27.823Z,16.30
2018-05-12T18:47:56.256Z,16.20
2018-05-12T18:50:24.946Z,16.10
2018-05-12T18:52:53.469Z,16.10
2018-05-12T18:55:22.038Z,15.90
2018-05-12T18:57:51.273Z,15.40
2018-05-12T19:00:19.702Z,15.40
2018-05-12T19:02:49.668Z,15.00
2018-05-12T19:05:18.585Z,14.90
2018-05-12T19:07:48.709Z,14.70
2018-05-12T19:10:17.373Z,14.60
2018-05-12T19:12:46.294Z,14.40
2018-05-12T19:15:15.040Z,14.30
2018-05-12T19:17:43.798Z,14.10
2018-05-12T19:20:13.359Z,13.80
2018-05-12T19:22:41.730Z,13.80
2018-05-12T19:25:10.305Z,13.70
2018-05-12T19:27:38.952Z,13.50
2018-05-12T19:30:08.274Z,13.30
2018-05-12T19:32:36.900Z,13.30
2018-05-12T19:35:05.668Z,13.20
2018-05-12T19:37:34.054Z,13.10
2018-05-12T19:40:03.133Z,12.70
2018-05-12T19:42:31.490Z,12.70
2018-05-12T19:44:59.834Z,12.70
2018-05-12T19:47:29.019Z,12.50
2018-05-12T19:49:58.172Z,12.30
2018-05-12T19:52:26.570Z,12.30
2018-05-12T19:54:55.732Z,12.20
2018-05-12T19:57:24.863Z,12.10
2018-05-12T19:59:53.501Z,12.10
2018-05-12T20:02:21.892Z,12.10
2018-05-12T20:04:51.033Z,12.00
2018-05-12T20:07:19.369Z,12.00
2018-05-12T20:09:49.400Z,12.00
2018-05-12T20:12:21.571Z,11.90
2018-05-12T20:14:49.933Z,11.80
2018-05-12T20:17:19.227Z,11.70
2018-05-12T20:19:47.564Z,11.70
2018-05-12T20:22:15.928Z,11.70
2018-05-12T20:24:44.285Z,11.60
2018-05-12T20:27:13.501Z,11.50
2018-05-12T20:29:41.964Z,11.50
2018-05-12T20:32:11.104Z,11.50
2018-05-12T20:34:39.465Z,11.50
2018-05-12T20:37:07.848Z,11.40
2018-05-12T20:39:37.045Z,11.40
2018-05-12T20:42:05.451Z,11.40
2018-05-12T20:44:34.718Z,11.30
2018-05-12T20:47:03.026Z,11.30
2018-05-12T20:49:31.422Z,11.30
2018-05-12T20:51:59.815Z,11.30
2018-05-12T20:54:28.195Z,11.30
2018-05-12T20:56:57.387Z,11.30
2018-05-12T20:59:25.730Z,11.20
2018-05-12T21:01:54.040Z,11.30
2018-05-12T21:04:22.438Z,11.40
2018-05-12T21:06:51.594Z,11.30
2018-05-12T21:09:19.965Z,11.20
2018-05-12T21:11:48.350Z,11.30
2018-05-12T21:14:16.703Z,11.10
2018-05-12T21:16:45.123Z,11.00
2018-05-12T21:19:13.582Z,11.10
2018-05-12T21:21:41.932Z,11.00
2018-05-12T21:24:11.274Z,11.10
2018-05-12T21:26:39.630Z,11.10
2018-05-12T21:29:08.012Z,11.10
2018-05-12T21:31:36.410Z,11.10
2018-05-12T21:34:04.859Z,11.10
2018-05-12T21:36:33.245Z,11.20
2018-05-12T21:39:01.646Z,11.30
2018-05-12T21:41:30.075Z,11.40
2018-05-12T21:43:59.190Z,11.50
2018-05-12T21:46:27.585Z,11.40
2018-05-12T21:48:55.976Z,11.50
2018-05-12T21:51:24.413Z,11.50
2018-05-12T21:53:53.644Z,11.50
2018-05-12T21:56:22.274Z,11.50
2018-05-12T21:58:50.707Z,11.60
2018-05-12T22:01:19.097Z,11.60
2018-05-12T22:03:47.545Z,11.70
2018-05-12T22:06:16.663Z,11.60
2018-05-12T22:08:45.066Z,11.60
2018-05-12T22:11:13.501Z,11.60
2018-05-12T22:13:42.707Z,11.60
2018-05-12T22:16:11.095Z,11.60
2018-05-12T22:18:39.549Z,11.60
2018-05-12T22:21:07.957Z,11.60
2018-05-12T22:23:36.343Z,11.60
2018-05-12T22:26:05.561Z,11.60
2018-05-12T22:28:34.013Z,11.60
2018-05-12T22:31:02.330Z,11.60
2018-05-12T22:33:30.659Z,11.50
2018-05-12T22:35:59.858Z,11.40
2018-05-12T22:38:28.997Z,11.40
2018-05-12T22:40:57.473Z,11.40
2018-05-12T22:43:25.821Z,11.40
2018-05-12T22:45:54.917Z,11.30
2018-05-12T22:48:24.095Z,11.20
2018-05-12T22:50:52.535Z,11.20
2018-05-12T22:53:20.927Z,11.30
2018-05-12T22:55:49.311Z,11.20
2018-05-12T22:58:17.669Z,11.10
2018-05-12T23:00:45.979Z,11.20
2018-05-12T23:03:14.310Z,11.00
2018-05-12T23:05:42.724Z,11.10
2018-05-12T23:08:11.051Z,11.00
2018-05-12T23:10:39.505Z,10.90
2018-05-12T23:13:07.835Z,10.80
2018-05-12T23:15:36.375Z,10.80
2018-05-12T23:18:05.571Z,10.80
2018-05-12T23:20:33.948Z,10.80
2018-05-12T23:23:02.281Z,10.70
2018-05-12T23:25:30.853Z,10.70
2018-05-12T23:28:00.127Z,10.50
2018-05-12T23:30:29.207Z,10.60
2018-05-12T23:32:57.658Z,10.60
2018-05-12T23:35:26.847Z,10.70
2018-05-12T23:37:55.405Z,10.70
2018-05-12T23:40:23.974Z,10.80
2018-05-12T23:42:53.058Z,11.00
2018-05-12T23:45:21.454Z,11.00
2018-05-12T23:47:49.833Z,11.10
2018-05-12T23:50:18.918Z,11.50
2018-05-12T23:52:48.021Z,11.70
2018-05-12T23:55:17.124Z,11.70
2018-05-12T23:57:46.274Z,11.90
